Aggieland, Texas
Current Conditions -  °F | °C
As of 11:53 PM on Thursday 27 Nov 2014 (Local Time) from KCLL Reporting Station
Clear Clear  
Wind Chill: 44°   Ceiling: Unl
Heat Index: 47°   Visibility: 10mi
Dew Point: 34°   Wind: 6mph
Humidity: 61%   Direction: 150°SSE
Pressure: 30.39"   Gusts: NA
Location:  30.5943°N, 96.3574°W
Report Text: KCLL 280553Z 15005KT 10SM CLR 08/01 A3039 RMK AO2 SLP289 T00830011 10144 20072 401830067 58009
Loading
Personal Weather Stations






























Interactive Weather Map New forecast layout! Learn more

10-Day Weather Forecast

Advertisements
Track Severe Weather on mobile